createdAt,value
2022-11-18T00:04:28.574Z,98797.44
2022-11-18T00:09:31.217Z,98793.38
2022-11-18T00:14:33.838Z,98799.53
2022-11-18T00:19:38.527Z,98785.84
2022-11-18T00:24:41.087Z,98796.97
2022-11-18T00:29:43.748Z,98753.16
2022-11-18T00:34:46.309Z,98771.31
2022-11-18T00:39:48.994Z,98740.72
2022-11-18T00:44:51.535Z,98770.19
2022-11-18T00:49:54.140Z,98782.06
2022-11-18T00:54:56.785Z,98776.97
2022-11-18T00:59:59.388Z,98754.63
2022-11-18T01:05:02.021Z,98775.56
2022-11-18T01:10:06.492Z,98782.31
2022-11-18T01:15:09.614Z,98757.53
2022-11-18T01:20:12.506Z,98754.38
2022-11-18T01:25:15.256Z,98756.09
2022-11-18T01:30:17.952Z,98749.38
2022-11-18T01:35:20.999Z,98763.84
2022-11-18T01:40:23.620Z,98749.69
2022-11-18T01:45:37.909Z,98714.34
2022-11-18T01:50:47.735Z,98747.81
2022-11-18T01:55:54.420Z,98747.94
2022-11-18T02:00:57.374Z,98728.91
2022-11-18T02:06:01.971Z,98748.72
2022-11-18T02:11:05.202Z,98736.47
2022-11-18T02:16:25.443Z,98747.34
2022-11-18T02:21:56.089Z,98737.84
2022-11-18T02:27:37.586Z,98728.06
2022-11-18T02:32:55.460Z,98721.84
2022-11-18T02:38:03.706Z,98737.84
2022-11-18T02:43:16.235Z,98685.03
2022-11-18T02:48:22.965Z,98721.19
2022-11-18T02:53:28.744Z,98706.88
2022-11-18T02:58:31.373Z,98706.16
2022-11-18T03:03:36.091Z,98699.31
2022-11-18T03:09:10.838Z,98707.84
2022-11-18T03:14:22.206Z,98711.34
2022-11-18T03:19:43.079Z,98718.25
2022-11-18T03:24:57.114Z,98682.56
2022-11-18T03:30:04.752Z,98679.44
2022-11-18T03:35:13.445Z,98700.47
2022-11-18T03:40:22.181Z,98667.84
2022-11-18T03:45:39.521Z,98697.66
2022-11-18T03:50:51.504Z,98687.84
2022-11-18T03:56:02.550Z,98695.25
2022-11-18T04:01:11.761Z,98683.44
2022-11-18T04:06:35.481Z,98658.19
2022-11-18T04:12:04.484Z,98687.59
2022-11-18T04:17:12.759Z,98685.59
2022-11-18T04:22:15.847Z,98678.13
2022-11-18T04:27:18.573Z,98661.00
2022-11-18T04:32:21.137Z,98664.44
2022-11-18T04:37:24.614Z,98688.06
2022-11-18T04:42:27.351Z,98671.28
2022-11-18T04:47:29.913Z,98693.47
2022-11-18T04:52:32.466Z,98671.25
2022-11-18T04:57:35.009Z,98690.44
2022-11-18T05:02:37.596Z,98664.22
2022-11-18T05:07:40.269Z,98685.59
2022-11-18T05:12:50.281Z,98666.09
2022-11-18T05:17:52.959Z,98700.22
2022-11-18T05:22:56.140Z,98682.84
2022-11-18T05:27:58.783Z,98696.28
2022-11-18T05:33:01.320Z,98684.09
2022-11-18T05:38:04.857Z,98688.69
2022-11-18T05:43:11.777Z,98680.91
2022-11-18T05:48:14.509Z,98694.41
2022-11-18T05:53:19.614Z,98641.56
2022-11-18T05:58:22.198Z,98686.41
2022-11-18T06:03:31.023Z,98683.22
2022-11-18T06:08:39.028Z,98691.63
2022-11-18T06:13:50.579Z,98684.69
2022-11-18T06:18:53.387Z,98659.09
2022-11-18T06:23:56.886Z,98667.88
2022-11-18T06:28:59.868Z,98684.69
2022-11-18T06:34:02.393Z,98678.19
2022-11-18T06:39:05.723Z,98682.22
2022-11-18T06:44:08.433Z,98694.53
2022-11-18T06:49:11.146Z,98693.81
2022-11-18T06:54:13.749Z,98648.28
2022-11-18T06:59:22.275Z,98685.97
2022-11-18T07:04:24.853Z,98693.25
2022-11-18T07:09:27.505Z,98666.69
2022-11-18T07:14:30.341Z,98689.25
2022-11-18T07:19:35.813Z,98697.47
2022-11-18T07:24:39.666Z,98682.66
2022-11-18T07:29:42.352Z,98703.56
2022-11-18T07:34:45.934Z,98678.38
2022-11-18T07:39:48.544Z,98693.88
2022-11-18T07:44:51.171Z,98701.91
2022-11-18T07:49:53.718Z,98703.97
2022-11-18T07:54:56.242Z,98677.69
2022-11-18T07:59:58.859Z,98700.69
2022-11-18T08:05:01.841Z,98714.97
2022-11-18T08:10:05.807Z,98715.38
2022-11-18T08:15:08.938Z,98705.81
2022-11-18T08:20:11.923Z,98707.16
2022-11-18T08:25:14.639Z,98705.31
2022-11-18T08:30:18.350Z,98701.63
2022-11-18T08:35:21.133Z,98723.34
2022-11-18T08:40:24.116Z,98716.34
2022-11-18T08:45:26.825Z,98715.50
2022-11-18T08:50:29.444Z,98712.47
2022-11-18T08:55:31.947Z,98717.66
2022-11-18T09:00:34.575Z,98720.75
2022-11-18T09:05:37.097Z,98721.63
2022-11-18T09:10:39.945Z,98717.22
2022-11-18T09:15:42.534Z,98727.41
2022-11-18T09:20:55.068Z,98716.41
2022-11-18T09:25:59.971Z,98728.13
2022-11-18T09:31:08.128Z,98723.00
2022-11-18T09:36:15.197Z,98725.56
2022-11-18T09:41:30.512Z,98728.53
2022-11-18T09:46:48.260Z,98735.38
2022-11-18T09:51:52.835Z,98707.53
2022-11-18T09:56:56.216Z,98727.94
2022-11-18T10:02:11.577Z,98731.75
2022-11-18T10:07:26.538Z,98724.72
2022-11-18T10:12:33.007Z,98731.03
2022-11-18T10:17:54.866Z,98737.75
2022-11-18T10:22:57.180Z,98753.03
2022-11-18T10:28:15.899Z,98731.78
2022-11-18T10:33:21.474Z,98744.69
2022-11-18T10:38:24.188Z,98752.28
2022-11-18T10:44:04.070Z,98756.94
2022-11-18T10:49:09.380Z,98763.06
2022-11-18T10:54:22.449Z,98765.97
2022-11-18T10:59:33.071Z,98761.78
2022-11-18T11:04:37.808Z,98769.56
2022-11-18T11:09:40.619Z,98765.38
2022-11-18T11:14:54.039Z,98774.81
2022-11-18T11:20:05.928Z,98782.28
2022-11-18T11:25:16.207Z,98757.28
2022-11-18T11:30:21.772Z,98765.66
2022-11-18T11:35:24.355Z,98792.94
2022-11-18T11:40:41.088Z,98799.69
2022-11-18T11:45:55.419Z,98790.34
2022-11-18T11:51:16.173Z,98814.38
2022-11-18T11:56:33.731Z,98774.97
2022-11-18T12:01:55.037Z,98809.28
2022-11-18T12:06:59.949Z,98813.25
2022-11-18T12:12:29.448Z,98812.69
2022-11-18T12:17:48.543Z,98820.81
2022-11-18T12:23:24.804Z,98832.59
2022-11-18T12:28:36.085Z,98841.97
2022-11-18T12:33:51.995Z,98843.56
2022-11-18T12:38:55.431Z,98815.78
2022-11-18T12:44:01.259Z,98854.34
2022-11-18T12:49:22.378Z,98855.81
2022-11-18T12:54:27.792Z,98864.25
2022-11-18T12:59:37.639Z,98856.53
2022-11-18T13:04:45.762Z,98866.06
2022-11-18T13:09:49.335Z,98879.22
2022-11-18T13:15:10.627Z,98881.00
2022-11-18T13:20:36.097Z,98886.00
2022-11-18T13:25:39.796Z,98868.66
2022-11-18T13:31:17.316Z,98892.50
2022-11-18T13:36:21.905Z,98903.59
2022-11-18T13:41:32.745Z,98924.69
2022-11-18T13:46:35.539Z,98910.38
2022-11-18T13:51:38.940Z,98896.91
2022-11-18T13:56:42.037Z,98893.50
2022-11-18T14:01:46.254Z,98902.44
2022-11-18T14:06:49.216Z,98905.88
2022-11-18T14:12:07.640Z,98912.34
2022-11-18T14:17:25.683Z,98884.53
2022-11-18T14:22:33.650Z,98906.13
2022-11-18T14:27:40.767Z,98903.78
2022-11-18T14:32:43.465Z,98912.16
2022-11-18T14:37:46.639Z,98910.53
2022-11-18T14:42:49.312Z,98912.31
2022-11-18T14:47:52.906Z,98915.09
2022-11-18T14:52:56.230Z,98914.16
2022-11-18T14:57:59.074Z,98906.34
2022-11-18T15:03:01.611Z,98872.75
2022-11-18T15:08:04.940Z,98926.59
2022-11-18T15:13:07.535Z,98924.81
2022-11-18T15:18:10.068Z,98927.78
2022-11-18T15:23:12.643Z,98924.03
2022-11-18T15:28:15.191Z,98919.78
2022-11-18T15:33:17.906Z,98940.41
2022-11-18T15:38:21.002Z,98937.59
2022-11-18T15:43:23.546Z,98940.50
2022-11-18T15:48:26.152Z,98955.50
2022-11-18T15:53:28.715Z,98966.63
2022-11-18T15:58:35.681Z,98974.06
2022-11-18T16:03:38.783Z,98978.97
2022-11-18T16:08:41.428Z,98985.88
2022-11-18T16:13:44.288Z,98992.91
2022-11-18T16:18:47.075Z,99005.63
2022-11-18T16:23:49.823Z,99000.94
2022-11-18T16:28:52.703Z,99002.56
2022-11-18T16:33:55.350Z,99022.50
2022-11-18T16:38:58.205Z,98993.44
2022-11-18T16:44:05.409Z,99030.22
2022-11-18T16:49:11.949Z,99030.31
2022-11-18T16:54:20.233Z,99037.34
2022-11-18T16:59:24.732Z,99037.28
2022-11-18T17:04:29.455Z,99055.00
2022-11-18T17:09:32.375Z,99034.84
2022-11-18T17:14:38.127Z,99043.56
2022-11-18T17:19:40.832Z,99050.66
2022-11-18T17:24:43.347Z,99046.00
2022-11-18T17:29:45.955Z,99060.06
2022-11-18T17:34:48.633Z,99063.16
2022-11-18T17:39:51.138Z,99059.09
2022-11-18T17:44:53.755Z,99050.97
2022-11-18T17:49:56.384Z,99078.50
2022-11-18T17:54:59.002Z,99075.66
2022-11-18T18:00:01.673Z,99075.78
2022-11-18T18:05:10.134Z,99093.78
2022-11-18T18:10:13.544Z,99071.22
2022-11-18T18:15:16.304Z,99094.53
2022-11-18T18:20:18.850Z,99098.66
2022-11-18T18:25:21.525Z,99093.38
2022-11-18T18:30:24.138Z,99103.31
2022-11-18T18:35:26.784Z,99108.34
2022-11-18T18:40:29.367Z,99103.22
2022-11-18T18:45:50.486Z,99116.72
2022-11-18T18:50:53.098Z,99123.69
2022-11-18T18:55:56.712Z,99112.41
2022-11-18T19:01:14.778Z,99138.84
2022-11-18T19:12:01.891Z,99149.06
2022-11-18T19:17:09.994Z,99145.34
2022-11-18T19:22:15.204Z,99153.00
2022-11-18T19:27:19.195Z,99157.84
2022-11-18T19:32:21.853Z,99151.41
2022-11-18T19:37:24.592Z,99160.63
2022-11-18T19:42:28.042Z,99161.59
2022-11-18T19:47:31.179Z,99187.31
2022-11-18T19:52:33.938Z,99198.59
2022-11-18T19:57:36.499Z,99189.97
2022-11-18T20:02:39.206Z,99206.13
2022-11-18T20:07:41.771Z,99218.63
2022-11-18T20:12:44.296Z,99214.13
2022-11-18T20:17:46.820Z,99218.09
2022-11-18T20:22:49.496Z,99223.19
2022-11-18T20:27:52.259Z,99219.88
2022-11-18T20:32:54.946Z,99231.06
2022-11-18T20:37:57.439Z,99249.84
2022-11-18T20:43:12.007Z,99229.13
2022-11-18T20:48:14.619Z,99257.94
2022-11-18T20:53:17.655Z,99266.53
2022-11-18T20:58:20.294Z,99282.75
2022-11-18T21:03:22.861Z,99287.84
2022-11-18T21:08:25.469Z,99286.28
2022-11-18T21:13:46.560Z,99297.34
2022-11-18T21:18:49.184Z,99309.56
2022-11-18T21:24:00.200Z,99327.44
2022-11-18T21:29:05.479Z,99339.84
2022-11-18T21:34:08.625Z,99346.25
2022-11-18T21:39:12.046Z,99350.34
2022-11-18T21:44:14.890Z,99355.06
2022-11-18T21:49:17.766Z,99375.44
2022-11-18T21:54:20.767Z,99371.66
2022-11-18T21:59:23.771Z,99380.25
2022-11-18T22:04:44.623Z,99376.84
2022-11-18T22:09:47.242Z,99386.44
2022-11-18T22:14:49.877Z,99383.53
2022-11-18T22:19:52.352Z,99387.78
2022-11-18T22:24:54.896Z,99399.06
2022-11-18T22:29:57.496Z,99394.06
2022-11-18T22:35:00.103Z,99411.59
2022-11-18T22:40:02.728Z,99394.78
2022-11-18T22:45:07.049Z,99377.41
2022-11-18T22:50:10.766Z,99424.41
2022-11-18T22:55:13.339Z,99421.34
2022-11-18T23:00:16.975Z,99425.13
2022-11-18T23:05:19.543Z,99423.00
2022-11-18T23:10:22.072Z,99423.03
2022-11-18T23:15:24.625Z,99436.06
2022-11-18T23:20:27.172Z,99445.16
2022-11-18T23:25:29.924Z,99462.16
2022-11-18T23:30:32.451Z,99467.69
2022-11-18T23:35:35.537Z,99472.38
2022-11-18T23:40:38.138Z,99481.63
2022-11-18T23:45:42.008Z,99485.47
2022-11-18T23:50:59.146Z,99499.63
2022-11-18T23:56:04.610Z,99491.25
